Time;durP1;ratioP1;P1;durP2;ratioP2;P2;SDS_P1;SDS_P2;PMS_P1;PMS_P2;Temp;Humidity;BMP_temperature;BMP_pressure;BME280_temperature;BME280_humidity;BME280_pressure;Samples;Min_cycle;Max_cycle;Signal;HPM_P1;HPM_P2
2021/10/23 00:02:22;;;;;;;8.53;2.60;;;;;;;5.82;80.74;96354.16;5033871;28;20190;-81
2021/10/23 00:04:47;;;;;;;6.00;2.40;;;;;;;5.86;80.70;96340.16;5049678;28;20185;-81
2021/10/23 00:07:12;;;;;;;4.50;2.23;;;;;;;5.86;80.49;96347.06;5031740;28;20193;-81
2021/10/23 00:09:38;;;;;;;6.67;2.30;;;;;;;5.82;81.20;96346.44;5050247;28;20209;-81
2021/10/23 00:12:04;;;;;;;7.23;2.40;;;;;;;5.89;81.05;96344.28;5050356;28;20244;-81
2021/10/23 00:14:29;;;;;;;10.40;3.00;;;;;;;5.82;81.24;96343.84;5049573;28;20205;-80
2021/10/23 00:16:54;;;;;;;5.57;2.47;;;;;;;5.84;80.86;96342.03;5033428;28;20181;-81
2021/10/23 00:19:19;;;;;;;9.00;2.50;;;;;;;5.86;80.92;96345.31;5033316;28;20208;-80
2021/10/23 00:21:45;;;;;;;3.03;2.00;;;;;;;5.83;81.42;96345.53;5050105;28;20182;-82
2021/10/23 00:24:10;;;;;;;8.83;2.70;;;;;;;5.82;81.12;96346.44;5052356;28;20178;-81
2021/10/23 00:26:35;;;;;;;7.27;2.50;;;;;;;5.84;81.30;96347.19;5036478;28;20181;-81
2021/10/23 00:29:01;;;;;;;7.37;2.60;;;;;;;5.82;81.25;96349.00;5051162;28;20208;-81
2021/10/23 00:31:26;;;;;;;8.03;2.50;;;;;;;5.83;81.43;96340.38;5033364;28;20197;-80
2021/10/23 00:33:51;;;;;;;14.13;2.80;;;;;;;5.81;81.89;96352.50;5037326;28;20199;-80
2021/10/23 00:36:17;;;;;;;12.53;2.70;;;;;;;5.79;81.89;96344.06;5026457;28;20198;-80
2021/10/23 00:38:42;;;;;;;6.40;2.27;;;;;;;5.93;81.28;96345.78;5016418;28;20268;-81
2021/10/23 00:41:07;;;;;;;7.60;2.70;;;;;;;5.83;81.34;96340.38;5033413;28;20186;-81
2021/10/23 00:43:36;;;;;;;6.03;2.60;;;;;;;5.81;81.64;96347.34;5032711;28;20553;-81
2021/10/23 00:46:02;;;;;;;6.70;2.90;;;;;;;5.85;81.58;96343.66;5050881;28;20169;-80
2021/10/23 00:48:27;;;;;;;4.67;2.70;;;;;;;5.80;81.57;96348.28;5032783;28;20218;-81
2021/10/23 00:50:52;;;;;;;8.13;2.43;;;;;;;5.77;81.75;96345.09;5032909;28;20252;-81
2021/10/23 00:53:20;;;;;;;5.10;2.17;;;;;;;5.78;81.32;96351.88;5016624;28;20210;-81
2021/10/23 00:55:46;;;;;;;5.93;2.20;;;;;;;5.82;81.25;96350.75;5015890;28;20202;-82
2021/10/23 00:58:11;;;;;;;5.03;1.83;;;;;;;5.83;81.12;96350.69;5019814;28;20229;-81
2021/10/23 01:00:36;;;;;;;6.97;2.30;;;;;;;5.83;81.15;96354.97;5045788;28;20196;-80
2021/10/23 01:03:02;;;;;;;4.63;2.03;;;;;;;5.83;80.71;96347.25;5055071;28;20178;-81
2021/10/23 01:05:27;;;;;;;9.40;2.20;;;;;;;5.78;80.90;96355.28;5035939;28;20215;-81
2021/10/23 01:07:52;;;;;;;4.00;1.90;;;;;;;5.81;80.63;96357.66;5017976;28;20584;-80
2021/10/23 01:10:18;;;;;;;7.33;2.17;;;;;;;5.80;80.92;96358.59;5019914;28;20267;-81
2021/10/23 01:12:44;;;;;;;5.87;2.00;;;;;;;5.76;80.90;96367.47;5036506;28;20674;-80
2021/10/23 01:15:18;;;;;;;5.63;2.30;;;;;;;5.72;81.55;96368.56;5019078;28;20671;-80
2021/10/23 01:17:43;;;;;;;4.33;1.93;;;;;;;5.69;81.36;96372.16;5036083;28;20271;-80
2021/10/23 01:20:09;;;;;;;7.77;2.10;;;;;;;5.68;81.45;96369.69;5036476;28;20174;-80
2021/10/23 01:22:34;;;;;;;11.13;2.50;;;;;;;5.67;81.64;96370.63;5036791;28;20193;-81
2021/10/23 01:25:00;;;;;;;5.27;2.00;;;;;;;5.64;81.65;96378.53;5019623;28;20178;-81
2021/10/23 01:27:25;;;;;;;4.73;2.43;;;;;;;5.64;81.88;96381.94;5036116;28;20193;-81
2021/10/23 01:29:50;;;;;;;9.53;2.47;;;;;;;5.69;82.04;96379.06;5036210;28;20671;-81
2021/10/23 01:32:15;;;;;;;6.63;2.27;;;;;;;5.67;82.12;96389.50;5036262;28;20170;-81
2021/10/23 01:34:41;;;;;;;6.87;2.20;;;;;;;5.67;82.22;96380.94;5035696;28;20177;-81
2021/10/23 01:37:06;;;;;;;8.93;2.30;;;;;;;5.69;82.34;96379.06;5019911;28;20272;-81
2021/10/23 01:39:35;;;;;;;6.60;2.30;;;;;;;5.66;82.66;96384.44;5036305;28;20190;-81
2021/10/23 01:42:01;;;;;;;11.10;2.40;;;;;;;5.66;82.63;96381.84;5036333;28;20224;-81
2021/10/23 01:44:33;;;;;;;6.53;2.47;;;;;;;5.68;82.66;96372.28;5053183;28;20217;-81
2021/10/23 01:46:59;;;;;;;5.33;2.13;;;;;;;5.65;82.73;96377.59;5019521;28;20263;-80
2021/10/23 01:49:24;;;;;;;8.93;2.50;;;;;;;5.70;82.73;96375.56;5019196;28;20233;-81
2021/10/23 01:51:50;;;;;;;6.53;2.10;;;;;;;5.74;82.96;96376.19;5019436;28;20228;-81
2021/10/23 01:54:15;;;;;;;6.30;2.30;;;;;;;5.77;82.71;96378.59;5018656;28;20200;-81
2021/10/23 01:56:41;;;;;;;5.53;2.20;;;;;;;5.74;82.56;96377.00;5019517;28;20629;-81
2021/10/23 01:59:07;;;;;;;5.77;2.00;;;;;;;5.78;82.42;96373.34;5018948;28;20280;-81
2021/10/23 02:01:33;;;;;;;6.43;2.13;;;;;;;5.77;82.64;96376.84;5019241;28;20645;-81
2021/10/23 02:03:59;;;;;;;3.60;2.00;;;;;;;5.81;82.57;96373.13;5018590;28;20235;-81
2021/10/23 02:06:24;;;;;;;6.93;2.47;;;;;;;5.81;82.67;96373.13;5035552;28;20182;-80
2021/10/23 02:08:50;;;;;;;4.60;2.20;;;;;;;5.78;82.83;96372.50;5033941;28;20245;-81
2021/10/23 02:11:17;;;;;;;7.30;2.30;;;;;;;5.78;82.77;96373.34;5035474;28;20181;-81
2021/10/23 02:13:42;;;;;;;5.87;2.53;;;;;;;5.74;83.11;96369.28;5034840;28;20172;-81
2021/10/23 02:16:08;;;;;;;3.90;2.07;;;;;;;5.73;82.98;96372.78;5018306;28;20533;-81
2021/10/23 02:18:34;;;;;;;7.03;2.10;;;;;;;5.74;83.24;96371.03;5018912;28;20217;-80
2021/10/23 02:20:59;;;;;;;7.50;2.30;;;;;;;5.73;83.27;96377.94;5035405;28;20236;-81
2021/10/23 02:23:25;;;;;;;8.57;2.50;;;;;;;5.75;83.06;96378.69;5018782;28;20672;-81
2021/10/23 02:25:50;;;;;;;6.40;2.20;;;;;;;5.76;83.01;96375.19;5017864;28;20169;-80
2021/10/23 02:28:16;;;;;;;5.47;2.13;;;;;;;5.73;83.44;96380.53;5035238;28;20205;-80
2021/10/23 02:30:41;;;;;;;7.27;3.07;;;;;;;5.75;83.40;96377.88;5034976;28;20195;-81
2021/10/23 02:33:06;;;;;;;8.90;3.10;;;;;;;5.74;83.29;96387.31;5034924;28;20185;-80
2021/10/23 02:35:32;;;;;;;9.67;2.50;;;;;;;5.73;83.34;96379.69;5034367;28;20326;-81
2021/10/23 02:37:57;;;;;;;8.17;2.63;;;;;;;5.72;83.15;96383.19;5034921;28;20263;-80
2021/10/23 02:40:23;;;;;;;10.67;2.80;;;;;;;5.73;83.31;96382.28;5034943;28;20182;-81
2021/10/23 02:42:48;;;;;;;2.93;2.20;;;;;;;5.72;83.41;96388.34;5018376;28;20600;-80
2021/10/23 02:45:14;;;;;;;9.93;2.83;;;;;;;5.73;83.58;96385.69;5017681;28;20660;-80
2021/10/23 02:47:39;;;;;;;10.63;2.50;;;;;;;5.73;83.30;96390.81;5018275;28;20194;-81
2021/10/23 02:50:05;;;;;;;6.37;2.73;;;;;;;5.75;83.25;96394.16;5034649;28;20181;-81
2021/10/23 02:52:30;;;;;;;6.60;2.40;;;;;;;5.75;83.54;96398.50;5017923;28;20272;-80
2021/10/23 02:54:56;;;;;;;6.53;2.63;;;;;;;5.76;83.10;96388.06;5017209;28;20180;-80
2021/10/23 02:57:21;;;;;;;9.17;2.60;;;;;;;5.77;82.85;96392.31;5017796;28;20181;-81
2021/10/23 02:59:46;;;;;;;10.43;2.70;;;;;;;5.78;82.81;96395.72;5018182;28;20657;-81
2021/10/23 03:02:11;;;;;;;8.93;3.00;;;;;;;5.80;83.15;96393.84;5017867;28;20174;-80
2021/10/23 03:04:37;;;;;;;5.77;3.00;;;;;;;5.86;82.62;96389.13;5051813;28;20177;-80
2021/10/23 03:07:02;;;;;;;10.83;2.63;;;;;;;5.85;82.41;96390.06;5016392;28;20209;-81
2021/10/23 03:09:28;;;;;;;7.43;2.60;;;;;;;5.84;82.51;96391.00;5017700;28;20430;-81
2021/10/23 03:11:53;;;;;;;10.63;2.47;;;;;;;5.86;82.38;96391.72;5017868;28;20664;-80
2021/10/23 03:14:19;;;;;;;9.13;2.80;;;;;;;5.95;81.62;96400.66;5017283;28;20288;-81
2021/10/23 03:16:44;;;;;;;8.47;2.90;;;;;;;5.88;81.95;96397.59;5034242;28;20185;-82
2021/10/23 03:19:09;;;;;;;5.60;2.43;;;;;;;5.89;82.24;96406.16;5052044;28;20194;-80
2021/10/23 03:21:35;;;;;;;7.53;2.30;;;;;;;5.93;82.44;96403.31;5034016;28;20607;-81
2021/10/23 03:24:00;;;;;;;5.27;2.50;;;;;;;5.84;82.45;96409.03;5017315;28;20212;-80
2021/10/23 03:26:25;;;;;;;8.50;2.50;;;;;;;5.88;82.55;96402.75;5017907;28;20196;-80
2021/10/23 03:28:51;;;;;;;10.27;2.70;;;;;;;5.89;82.80;96401.81;5034209;28;20232;-81
2021/10/23 03:31:16;;;;;;;7.00;2.53;;;;;;;5.88;82.60;96405.31;5034006;28;20178;-80
2021/10/23 03:33:41;;;;;;;4.53;2.73;;;;;;;5.86;83.05;96406.34;5017537;28;20181;-80
2021/10/23 03:36:07;;;;;;;5.40;2.40;;;;;;;5.85;82.72;96410.69;5034308;28;20174;-81
2021/10/23 03:38:32;;;;;;;6.47;2.40;;;;;;;5.82;82.92;96410.88;5017232;28;20213;-81
2021/10/23 03:40:58;;;;;;;9.53;2.77;;;;;;;5.82;83.16;96416.03;5034124;28;20170;-80
2021/10/23 03:43:23;;;;;;;5.73;2.60;;;;;;;5.85;83.09;96407.28;5017604;28;20641;-81
2021/10/23 03:45:48;;;;;;;7.53;2.93;;;;;;;5.79;83.31;96405.91;5033602;28;20185;-80
2021/10/23 03:48:14;;;;;;;6.37;2.47;;;;;;;5.80;83.51;96407.56;5017118;28;20198;-81
2021/10/23 03:50:39;;;;;;;9.33;3.17;;;;;;;5.82;83.25;96410.03;5017429;28;20181;-80
2021/10/23 03:53:04;;;;;;;7.20;2.70;;;;;;;5.83;83.31;96409.09;5052084;28;20173;-81
2021/10/23 03:55:30;;;;;;;6.30;2.60;;;;;;;5.79;83.31;96411.06;5017163;28;20181;-80
2021/10/23 03:57:55;;;;;;;4.70;2.40;;;;;;;5.77;83.72;96412.09;5034005;28;20197;-81
2021/10/23 04:00:20;;;;;;;6.83;2.50;;;;;;;5.76;83.75;96411.28;5034334;28;20228;-81
2021/10/23 04:02:46;;;;;;;7.03;2.33;;;;;;;5.76;83.77;96413.84;5033954;28;20667;-80
2021/10/23 04:05:11;;;;;;;10.20;2.63;;;;;;;5.77;83.71;96414.69;5016626;28;20260;-80
2021/10/23 04:07:37;;;;;;;12.80;3.13;;;;;;;5.75;83.63;96413.94;5031760;28;20240;-81
2021/10/23 04:10:03;;;;;;;4.17;2.53;;;;;;;5.72;84.20;96417.53;5017297;28;20665;-81
2021/10/23 04:12:29;;;;;;;9.80;3.17;;;;;;;5.68;84.61;96410.94;5017316;28;20641;-81
2021/10/23 04:14:55;;;;;;;9.90;3.33;;;;;;;5.72;84.14;96408.97;5016973;28;20209;-80
2021/10/23 04:17:20;;;;;;;13.03;3.70;;;;;;;5.65;84.36;96411.09;5033936;28;20201;-80
2021/10/23 04:19:45;;;;;;;7.67;2.90;;;;;;;5.66;84.66;96412.78;5033652;28;20170;-80
2021/10/23 04:22:11;;;;;;;7.50;3.40;;;;;;;5.67;84.42;96411.84;5017399;28;20186;-80
2021/10/23 04:24:36;;;;;;;12.33;4.37;;;;;;;5.64;84.46;96406.88;5016882;28;20649;-80
2021/10/23 04:27:02;;;;;;;8.27;3.30;;;;;;;5.65;84.56;96411.09;5033954;28;20248;-80
2021/10/23 04:29:27;;;;;;;5.73;3.33;;;;;;;5.66;84.19;96415.34;5033788;28;20346;-80
2021/10/23 04:31:52;;;;;;;5.97;2.97;;;;;;;5.65;84.30;96417.13;5033473;28;20174;-80
2021/10/23 04:34:18;;;;;;;6.70;3.37;;;;;;;5.64;84.40;96417.19;5016181;28;20186;-80
2021/10/23 04:36:43;;;;;;;5.53;3.03;;;;;;;5.64;84.40;96417.19;5017098;28;20178;-80
2021/10/23 04:39:09;;;;;;;8.63;3.53;;;;;;;5.60;84.45;96408.81;5036308;28;20193;-80
2021/10/23 04:41:35;;;;;;;8.57;3.60;;;;;;;5.59;84.77;96417.47;5021052;28;20183;-80
2021/10/23 04:44:00;;;;;;;8.57;2.90;;;;;;;5.54;85.02;96414.34;5019902;28;20650;-80
2021/10/23 04:46:26;;;;;;;9.17;3.70;;;;;;;5.56;85.11;96411.69;5055047;28;20169;-80
2021/10/23 04:48:51;;;;;;;10.13;3.43;;;;;;;5.53;85.10;96411.88;5037198;28;20244;-81
2021/10/23 04:51:16;;;;;;;8.40;3.20;;;;;;;5.53;85.09;96417.03;5022270;28;20228;-80
2021/10/23 04:53:41;;;;;;;7.83;2.90;;;;;;;5.52;85.06;96412.81;5040457;28;20237;-80
2021/10/23 04:56:07;;;;;;;9.87;3.77;;;;;;;5.46;85.53;96415.75;5057960;28;20200;-80
2021/10/23 04:58:32;;;;;;;9.90;4.27;;;;;;;5.48;85.42;96416.47;5038542;28;20190;-81
2021/10/23 05:00:59;;;;;;;9.50;4.30;;;;;;;5.47;85.76;96422.56;5020723;28;20329;-82
2021/10/23 05:03:25;;;;;;;8.27;3.77;;;;;;;5.47;85.20;96422.56;5037629;28;20174;-81
2021/10/23 05:05:50;;;;;;;9.43;3.47;;;;;;;5.46;85.60;96426.06;5020139;28;20178;-81
2021/10/23 05:08:16;;;;;;;6.83;2.97;;;;;;;5.45;85.51;96422.66;5018780;28;20217;-80
2021/10/23 05:10:41;;;;;;;6.23;3.20;;;;;;;5.46;85.55;96423.47;5054723;28;20190;-81
2021/10/23 05:13:07;;;;;;;6.33;2.70;;;;;;;5.47;85.38;96425.13;5036911;28;20535;-81
2021/10/23 05:15:32;;;;;;;8.20;2.93;;;;;;;5.46;85.64;96429.47;5035974;28;20185;-81
2021/10/23 05:17:57;;;;;;;6.13;3.40;;;;;;;5.45;85.79;96426.97;5037068;28;20221;-81
2021/10/23 05:20:25;;;;;;;4.73;3.00;;;;;;;5.44;86.26;96428.72;5020123;28;20181;-82
2021/10/23 05:22:50;;;;;;;5.57;2.70;;;;;;;5.39;86.43;96423.06;5037194;28;20174;-81
2021/10/23 05:25:15;;;;;;;5.90;2.67;;;;;;;5.42;86.21;96427.19;5019459;28;20188;-81
2021/10/23 05:27:40;;;;;;;4.23;2.50;;;;;;;5.43;86.20;96432.22;5036822;28;20220;-80
2021/10/23 05:30:06;;;;;;;6.33;2.90;;;;;;;5.44;86.21;96433.06;5036459;28;20339;-81
2021/10/23 05:32:31;;;;;;;7.53;2.70;;;;;;;5.45;86.27;96434.72;5036425;28;20178;-81
2021/10/23 05:34:57;;;;;;;8.10;2.80;;;;;;;5.45;85.77;96437.28;5035769;28;20645;-81
2021/10/23 05:37:22;;;;;;;5.93;3.07;;;;;;;5.45;86.05;96432.97;5036209;28;20598;-81
2021/10/23 05:39:48;;;;;;;11.90;2.90;;;;;;;5.46;86.46;96433.78;5036437;28;20182;-81
2021/10/23 05:42:13;;;;;;;6.43;3.00;;;;;;;5.46;86.06;96438.94;5036308;28;20181;-81
2021/10/23 05:44:38;;;;;;;8.73;3.10;;;;;;;5.45;86.68;96442.44;5035862;28;20209;-81
2021/10/23 05:47:04;;;;;;;7.70;3.80;;;;;;;5.42;86.61;96440.06;5036422;28;20181;-81
2021/10/23 05:49:29;;;;;;;10.83;3.53;;;;;;;5.41;86.55;96446.97;5034836;28;20287;-81
2021/10/23 05:51:55;;;;;;;5.80;3.00;;;;;;;5.39;86.65;96444.50;5036315;28;20178;-80
2021/10/23 05:54:20;;;;;;;6.37;2.93;;;;;;;5.41;86.54;96446.97;5018636;28;20549;-81
2021/10/23 05:56:46;;;;;;;10.63;3.20;;;;;;;5.41;86.72;96452.13;5035962;28;20638;-81
2021/10/23 05:59:12;;;;;;;3.83;3.10;;;;;;;5.40;86.52;96453.03;5036302;28;20227;-81
2021/10/23 06:01:38;;;;;;;5.50;3.07;;;;;;;5.43;86.79;96457.16;5020176;28;20197;-81
2021/10/23 06:04:04;;;;;;;5.90;2.77;;;;;;;5.44;86.66;96456.25;5018932;28;20234;-81
2021/10/23 06:06:30;;;;;;;6.07;3.07;;;;;;;5.45;87.04;96463.03;5036323;28;20182;-81
2021/10/23 06:08:55;;;;;;;5.40;2.70;;;;;;;5.46;86.63;96468.09;5034625;28;20217;-80
2021/10/23 06:11:21;;;;;;;4.73;3.10;;;;;;;5.47;86.83;96466.34;5019228;28;20637;-80
2021/10/23 06:13:47;;;;;;;7.47;3.20;;;;;;;5.47;86.68;96471.50;5035554;28;20269;-81
2021/10/23 06:16:13;;;;;;;7.17;3.93;;;;;;;5.47;86.63;96471.50;5036789;28;20181;-81
2021/10/23 06:18:38;;;;;;;10.83;4.70;;;;;;;5.48;86.72;96470.56;5037296;28;20198;-81
2021/10/23 06:21:03;;;;;;;8.53;4.60;;;;;;;5.46;86.44;96473.25;5054197;28;20182;-81
2021/10/23 06:23:31;;;;;;;5.30;3.90;;;;;;;5.42;86.35;96474.38;5020220;28;20181;-80
2021/10/23 06:25:57;;;;;;;12.10;5.30;;;;;;;5.44;86.48;96476.84;5042197;28;20185;-80
2021/10/23 06:28:22;;;;;;;10.63;4.13;;;;;;;5.42;85.57;96481.28;5020169;28;20249;-82
2021/10/23 06:30:47;;;;;;;8.93;3.80;;;;;;;5.42;86.29;96484.69;5036405;28;20186;-81
2021/10/23 06:33:12;;;;;;;7.40;3.30;;;;;;;5.43;86.28;96485.50;5036848;28;20191;-79
2021/10/23 06:35:38;;;;;;;9.27;3.53;;;;;;;5.47;85.82;96479.22;5055344;28;20174;-79
2021/10/23 06:38:03;;;;;;;7.27;4.37;;;;;;;5.46;nan;96480.97;5037883;28;20571;-80
2021/10/23 06:40:29;;;;;;;12.13;5.17;;;;;;;5.45;86.00;96487.06;5056474;28;20600;-79
2021/10/23 06:42:54;;;;;;;8.90;4.20;;;;;;;5.42;86.21;96481.28;5055845;28;20181;-79
2021/10/23 06:45:19;;;;;;;9.63;3.67;;;;;;;5.36;85.89;96488.44;5018906;28;20189;-81
2021/10/23 06:47:45;;;;;;;6.13;3.00;;;;;;;5.31;85.79;96485.34;5017410;28;20761;-80
2021/10/23 06:50:12;;;;;;;12.13;3.50;;;;;;;5.32;86.28;96499.03;5042955;28;20202;-81
2021/10/23 06:52:37;;;;;;;4.30;3.00;;;;;;;5.33;86.11;96500.69;5020600;28;20209;-78
2021/10/23 06:55:04;;;;;;;9.33;3.30;;;;;;;5.35;86.08;96488.53;5019097;28;20193;-80
2021/10/23 06:57:29;;;;;;;4.53;3.00;;;;;;;5.40;85.85;96494.25;5054581;28;20272;-80
2021/10/23 06:59:55;;;;;;;7.97;3.80;;;;;;;5.49;85.47;96505.75;5019542;28;20267;-79
2021/10/23 07:02:20;;;;;;;6.10;3.13;;;;;;;5.48;85.34;96506.66;5035883;28;20178;-79
2021/10/23 07:04:46;;;;;;;6.83;2.77;;;;;;;5.48;85.33;96510.06;5036732;28;20186;-79
2021/10/23 07:07:11;;;;;;;7.50;3.53;;;;;;;5.47;85.06;96503.25;5054282;28;20902;-80
2021/10/23 07:09:36;;;;;;;5.33;3.60;;;;;;;5.42;85.52;96515.59;5021397;28;20691;-80
2021/10/23 07:12:02;;;;;;;7.90;3.37;;;;;;;5.34;85.73;96513.47;5036878;28;20201;-79
2021/10/23 07:14:27;;;;;;;5.17;3.30;;;;;;;5.30;85.91;96519.75;5037461;28;20178;-81
2021/10/23 07:16:52;;;;;;;10.33;5.23;;;;;;;5.26;85.93;96520.81;5022155;28;20193;-79
2021/10/23 07:19:18;;;;;;;7.47;4.60;;;;;;;5.27;85.57;96527.63;5053946;28;20205;-79
2021/10/23 07:21:43;;;;;;;10.03;3.73;;;;;;;5.19;85.92;96524.69;5053309;28;20178;-79
2021/10/23 07:24:08;;;;;;;4.80;3.30;;;;;;;5.23;85.74;96515.03;5019267;28;20182;-79
2021/10/23 07:26:35;;;;;;;5.53;3.73;;;;;;;5.17;86.10;96526.53;5019200;28;20174;-79
2021/10/23 07:29:01;;;;;;;5.20;3.70;;;;;;;5.22;86.27;96524.50;5036055;28;20202;-78
2021/10/23 07:31:26;;;;;;;6.00;2.83;;;;;;;5.37;85.61;96536.47;5053048;28;20544;-79
2021/10/23 07:33:51;;;;;;;4.93;3.33;;;;;;;5.29;86.12;96545.56;5035316;28;20185;-78
2021/10/23 07:36:17;;;;;;;5.10;2.20;;;;;;;5.52;85.52;96544.19;5036426;28;20225;-79
2021/10/23 07:38:43;;;;;;;4.83;2.70;;;;;;;5.54;86.22;96556.06;5036848;28;20193;-80
2021/10/23 07:41:08;;;;;;;5.50;2.63;;;;;;;5.54;85.99;96561.22;5054780;28;20181;-80
2021/10/23 07:43:34;;;;;;;10.57;4.27;;;;;;;5.64;86.06;96562.31;5038854;28;20263;-80
2021/10/23 07:45:59;;;;;;;6.37;3.63;;;;;;;5.62;85.84;96564.16;5021728;28;20178;-80
2021/10/23 07:48:24;;;;;;;7.13;3.40;;;;;;;5.65;86.28;96571.72;5021656;28;20202;-80
2021/10/23 07:50:49;;;;;;;7.70;3.60;;;;;;;5.82;85.99;96573.25;5037764;28;20544;-80
2021/10/23 07:53:15;;;;;;;4.13;3.07;;;;;;;5.92;85.38;96566.66;5038207;28;20296;-79
2021/10/23 07:55:41;;;;;;;5.80;3.00;;;;;;;5.95;85.42;96576.78;5020577;28;20547;-80
2021/10/23 07:58:07;;;;;;;9.67;3.00;;;;;;;6.11;84.83;96571.50;5040561;28;20205;-81
2021/10/23 08:00:32;;;;;;;5.87;2.90;;;;;;;6.12;84.71;96585.25;5042032;28;20184;-80
2021/10/23 08:03:01;;;;;;;18.57;16.80;;;;;;;6.18;84.39;96587.41;5037725;28;20706;-78
2021/10/23 08:05:30;;;;;;;7.67;3.97;;;;;;;6.22;83.81;96589.72;5019107;28;20185;-79
2021/10/23 08:07:55;;;;;;;10.70;5.73;;;;;;;6.24;84.50;96594.78;5037281;28;20221;-80
2021/10/23 08:10:22;;;;;;;4.93;4.27;;;;;;;6.33;84.19;96595.97;5019199;28;20178;-80
2021/10/23 08:12:48;;;;;;;9.23;4.30;;;;;;;6.30;84.63;96601.31;5036747;28;20181;-78
2021/10/23 08:15:13;;;;;;;7.93;3.47;;;;;;;6.24;85.06;96597.34;5029189;28;20245;-80
2021/10/23 08:17:39;;;;;;;7.60;3.33;;;;;;;6.30;84.24;96594.41;5014371;28;20205;-78
2021/10/23 08:20:06;;;;;;;4.67;3.10;;;;;;;6.42;84.10;96600.53;5010731;28;20175;-77
2021/10/23 08:22:32;;;;;;;8.47;4.27;;;;;;;6.51;83.47;96593.03;5008501;28;20304;-77
2021/10/23 08:24:57;;;;;;;5.27;2.60;;;;;;;6.64;81.53;96600.84;5025911;28;20282;-78
2021/10/23 08:27:22;;;;;;;5.47;3.00;;;;;;;6.66;81.26;96603.34;5009668;28;20182;-78
2021/10/23 08:29:47;;;;;;;7.27;3.23;;;;;;;6.75;80.72;96607.91;5006056;28;20210;-80
2021/10/23 08:32:16;;;;;;;4.70;2.47;;;;;;;6.69;79.69;96603.13;5002547;28;20577;-79
2021/10/23 08:34:42;;;;;;;7.03;2.80;;;;;;;6.86;79.67;96596.88;5018586;28;20556;-79
2021/10/23 08:37:08;;;;;;;7.20;2.70;;;;;;;6.97;79.35;96595.25;5002835;28;20182;-79
2021/10/23 08:39:33;;;;;;;4.20;2.70;;;;;;;7.07;79.91;96595.50;5002517;28;20205;-79
2021/10/23 08:41:59;;;;;;;7.30;3.10;;;;;;;7.13;78.78;96592.50;5010388;28;20268;-79
2021/10/23 08:44:24;;;;;;;8.23;2.83;;;;;;;7.05;77.72;96599.91;5003032;28;20182;-78
2021/10/23 08:46:50;;;;;;;3.77;2.20;;;;;;;7.13;76.30;96597.66;5021947;28;20182;-78
2021/10/23 08:49:16;;;;;;;6.50;2.00;;;;;;;7.21;76.58;96600.56;5055564;28;20704;-77
2021/10/23 08:51:42;;;;;;;4.10;2.33;;;;;;;7.26;76.51;96600.28;5055518;28;20200;-79
2021/10/23 08:54:07;;;;;;;5.27;2.50;;;;;;;7.33;76.25;96606.66;5022217;28;20193;-80
2021/10/23 08:56:34;;;;;;;3.93;2.40;;;;;;;7.41;75.27;96612.16;5039359;28;20188;-79
2021/10/23 08:58:59;;;;;;;5.10;2.30;;;;;;;7.29;74.97;96613.00;5020713;28;20229;-80
2021/10/23 09:01:24;;;;;;;5.00;2.10;;;;;;;7.55;74.86;96624.19;5036764;28;20178;-80
2021/10/23 09:03:50;;;;;;;5.73;2.10;;;;;;;7.70;73.62;96617.97;5036103;28;20182;-81
2021/10/23 09:06:28;;;;;;;5.33;1.90;;;;;;;7.75;72.86;96622.81;5037161;28;20189;-81
2021/10/23 09:08:58;;;;;;;5.33;1.73;;;;;;;7.82;72.20;96631.81;5036780;28;20228;-81
2021/10/23 09:11:34;;;;;;;4.20;1.90;;;;;;;8.04;71.30;96621.69;5021640;28;20224;-80
2021/10/23 09:14:20;;;;;;;2.50;1.63;;;;;;;8.07;70.66;96618.88;5019638;28;20189;-80
2021/10/23 09:16:46;;;;;;;3.17;1.90;;;;;;;8.31;70.40;96613.75;5036230;28;20181;-81
2021/10/23 09:19:11;;;;;;;3.13;1.77;;;;;;;8.54;70.03;96614.75;5037247;28;20309;-81
2021/10/23 09:21:38;;;;;;;4.53;2.00;;;;;;;8.51;69.22;96620.16;5037341;28;20186;-81
2021/10/23 09:24:21;;;;;;;3.40;1.90;;;;;;;8.41;67.90;96619.16;5036913;28;20186;-81
2021/10/23 09:26:46;;;;;;;3.67;1.70;;;;;;;8.40;69.49;96615.72;5053654;28;20268;-80
2021/10/23 09:29:20;;;;;;;2.73;1.90;;;;;;;8.48;69.14;96620.34;5020507;28;20308;-79
2021/10/23 09:31:47;;;;;;;5.93;1.80;;;;;;;8.43;69.32;96625.03;5037234;28;20353;-79
2021/10/23 09:34:20;;;;;;;3.33;2.00;;;;;;;8.09;71.10;96624.75;5019850;28;20170;-80
2021/10/23 09:36:51;;;;;;;5.40;1.97;;;;;;;7.95;70.83;96632.63;5037112;28;20182;-79
2021/10/23 09:39:29;;;;;;;3.70;1.67;;;;;;;7.72;71.93;96630.81;5037276;28;20215;-79
2021/10/23 09:42:15;;;;;;;2.93;1.80;;;;;;;7.72;72.94;96625.63;5053675;28;20179;-79
2021/10/23 09:45:05;;;;;;;5.90;2.47;;;;;;;7.55;74.50;96619.00;5020010;28;20182;-79
2021/10/23 09:47:31;;;;;;;5.07;2.50;;;;;;;7.56;74.98;96628.41;5020824;28;20185;-80
2021/10/23 09:50:26;;;;;;;5.37;2.50;;;;;;;7.64;74.18;96632.13;5053418;28;20256;-80
2021/10/23 09:53:03;;;;;;;6.07;3.30;;;;;;;7.62;75.00;96630.59;4995740;28;20230;-80
2021/10/23 09:55:47;;;;;;;10.03;4.97;;;;;;;7.72;74.96;96635.97;5011297;28;20182;-78
2021/10/23 09:58:26;;;;;;;12.33;5.93;;;;;;;7.67;75.35;96639.69;5011639;28;20199;-81
2021/10/23 10:00:55;;;;;;;8.67;3.20;;;;;;;7.74;74.31;96647.84;4995993;28;20194;-79
2021/10/23 10:03:26;;;;;;;8.53;3.80;;;;;;;7.67;74.51;96652.59;5012138;28;20714;-80
2021/10/23 10:05:55;;;;;;;6.63;3.50;;;;;;;7.66;74.64;96650.97;4995906;28;20705;-79
2021/10/23 10:08:22;;;;;;;4.93;2.77;;;;;;;7.68;74.47;96656.03;4995951;28;20219;-79
2021/10/23 10:10:48;;;;;;;7.40;3.27;;;;;;;7.66;74.61;96661.28;4996015;28;20207;-79
2021/10/23 10:13:24;;;;;;;6.03;3.67;;;;;;;7.90;73.80;96652.84;4995324;28;20246;-80
2021/10/23 10:15:50;;;;;;;6.70;2.87;;;;;;;8.21;73.50;96654.13;4995780;28;20230;-80
2021/10/23 10:18:17;;;;;;;5.30;3.10;;;;;;;8.54;70.84;96653.56;4996264;28;20286;-80
2021/10/23 10:20:44;;;;;;;4.13;2.30;;;;;;;8.70;67.98;96658.50;4996392;28;20338;-80
2021/10/23 10:23:11;;;;;;;5.37;2.07;;;;;;;8.90;66.96;96655.31;5013323;28;20635;-80
2021/10/23 10:25:38;;;;;;;4.37;2.30;;;;;;;9.31;65.73;96657.50;4993777;28;20179;-80
2021/10/23 10:28:13;;;;;;;5.13;2.13;;;;;;;8.96;64.00;96651.47;4995895;28;20211;-81
2021/10/23 10:30:43;;;;;;;4.37;2.23;;;;;;;9.42;63.70;96653.28;5020008;28;20192;-80
2021/10/23 10:33:34;;;;;;;5.80;2.40;;;;;;;9.73;64.53;96649.25;5036115;28;20178;-81
2021/10/23 10:44:04;;;;;;;3.57;2.33;;;;;;;9.69;62.39;96646.03;5056341;28;20316;-80
2021/10/23 10:47:02;;;;;;;8.33;2.93;;;;;;;9.48;65.09;96645.06;5054451;28;20165;-81
2021/10/23 10:49:54;;;;;;;8.63;3.10;;;;;;;9.01;67.61;96644.16;5035393;28;20634;-80
2021/10/23 10:52:38;;;;;;;4.63;3.07;;;;;;;8.97;67.99;96637.56;5037221;28;20165;-80
2021/10/23 10:55:14;;;;;;;6.97;2.80;;;;;;;8.44;69.15;96639.63;5034541;28;20236;-80
2021/10/23 10:58:00;;;;;;;6.40;3.07;;;;;;;8.53;68.63;96644.16;5034587;28;20248;-80
2021/10/23 11:00:44;;;;;;;6.10;3.33;;;;;;;8.30;69.99;96647.50;5035013;28;20194;-80
2021/10/23 11:03:32;;;;;;;5.03;3.10;;;;;;;8.07;70.95;96651.69;5034709;28;20190;-81
2021/10/23 11:09:17;;;;;;;6.10;3.17;;;;;;;8.36;71.31;96641.94;5034218;28;20253;-81
2021/10/23 11:11:51;;;;;;;9.03;3.13;;;;;;;8.27;71.48;96645.94;5016998;28;20179;-80
2021/10/23 11:14:30;;;;;;;5.53;3.30;;;;;;;8.42;71.01;96644.09;5034714;28;20166;-81
2021/10/23 11:16:56;;;;;;;5.57;3.00;;;;;;;8.43;69.71;96648.34;5016837;28;20185;-81
2021/10/23 11:19:28;;;;;;;11.37;3.23;;;;;;;8.28;70.21;96649.38;5015346;28;20575;-81
2021/10/23 11:21:54;;;;;;;5.10;3.30;;;;;;;8.30;69.70;96644.91;5034666;28;20254;-81
2021/10/23 11:24:21;;;;;;;5.80;2.70;;;;;;;8.46;68.76;96632.56;5033795;28;20174;-82
2021/10/23 11:26:48;;;;;;;6.20;2.90;;;;;;;8.43;67.39;96627.63;4999946;28;20591;-80
2021/10/23 11:29:27;;;;;;;7.33;2.73;;;;;;;8.46;66.82;96630.81;5016894;28;20591;-80
2021/10/23 11:31:53;;;;;;;8.43;4.17;;;;;;;8.68;66.85;96622.38;5014776;28;20672;-80
2021/10/23 11:34:41;;;;;;;17.27;11.53;;;;;;;8.65;65.60;96626.91;4999353;28;20298;-80
2021/10/23 11:37:10;;;;;;;4.57;2.53;;;;;;;8.76;66.46;96627.81;5016439;28;20273;-81
2021/10/23 11:39:42;;;;;;;5.97;2.20;;;;;;;8.87;66.17;96614.09;5033125;28;20662;-80
2021/10/23 11:42:28;;;;;;;7.37;2.80;;;;;;;8.72;67.62;96613.44;5031713;28;20543;-81
2021/10/23 11:44:58;;;;;;;3.90;2.47;;;;;;;8.71;67.05;96621.31;5031516;28;20662;-80
2021/10/23 11:47:27;;;;;;;6.13;3.57;;;;;;;8.67;67.54;96625.06;4996070;28;20535;-80
2021/10/23 11:50:06;;;;;;;5.17;2.10;;;;;;;8.64;66.73;96628.69;5015861;28;20595;-81
2021/10/23 11:52:33;;;;;;;4.13;2.27;;;;;;;8.53;67.13;96631.22;4999807;28;20213;-81
2021/10/23 11:54:59;;;;;;;4.10;1.93;;;;;;;8.54;66.39;96637.22;5016061;28;20182;-81